sensor_id;sensor_type;location;lat;lon;timestamp;P1;durP1;ratioP1;P2;durP2;ratioP2
26375;SDS011;30544;42.196;24.336;2023-05-29T00:00:28;8.32;;;3.95;;
26375;SDS011;30544;42.196;24.336;2023-05-29T00:02:55;8.05;;;3.95;;
26375;SDS011;30544;42.196;24.336;2023-05-29T00:05:21;9.32;;;4.30;;
26375;SDS011;30544;42.196;24.336;2023-05-29T00:07:48;8.80;;;3.95;;
26375;SDS011;30544;42.196;24.336;2023-05-29T00:10:15;7.25;;;4.03;;
26375;SDS011;30544;42.196;24.336;2023-05-29T00:12:42;8.25;;;4.25;;
26375;SDS011;30544;42.196;24.336;2023-05-29T00:15:10;9.23;;;3.80;;
26375;SDS011;30544;42.196;24.336;2023-05-29T00:17:37;6.45;;;4.50;;
26375;SDS011;30544;42.196;24.336;2023-05-29T00:20:05;5.70;;;3.60;;
26375;SDS011;30544;42.196;24.336;2023-05-29T00:22:34;13.82;;;4.43;;
26375;SDS011;30544;42.196;24.336;2023-05-29T00:25:02;16.98;;;4.53;;
26375;SDS011;30544;42.196;24.336;2023-05-29T00:27:29;9.40;;;4.18;;
26375;SDS011;30544;42.196;24.336;2023-05-29T00:29:55;9.68;;;4.35;;
26375;SDS011;30544;42.196;24.336;2023-05-29T00:32:23;13.50;;;4.68;;
26375;SDS011;30544;42.196;24.336;2023-05-29T00:34:50;11.70;;;4.88;;
26375;SDS011;30544;42.196;24.336;2023-05-29T00:37:17;10.75;;;4.22;;
26375;SDS011;30544;42.196;24.336;2023-05-29T00:39:43;7.40;;;3.75;;
26375;SDS011;30544;42.196;24.336;2023-05-29T00:42:10;18.15;;;4.40;;
26375;SDS011;30544;42.196;24.336;2023-05-29T00:44:36;12.48;;;4.50;;
26375;SDS011;30544;42.196;24.336;2023-05-29T00:47:03;6.13;;;4.03;;
26375;SDS011;30544;42.196;24.336;2023-05-29T00:49:31;22.48;;;4.82;;
26375;SDS011;30544;42.196;24.336;2023-05-29T00:51:57;7.07;;;4.47;;
26375;SDS011;30544;42.196;24.336;2023-05-29T00:54:26;9.98;;;4.25;;
26375;SDS011;30544;42.196;24.336;2023-05-29T00:56:52;10.48;;;5.13;;
26375;SDS011;30544;42.196;24.336;2023-05-29T00:59:19;12.93;;;4.40;;
26375;SDS011;30544;42.196;24.336;2023-05-29T01:01:47;10.05;;;4.65;;
26375;SDS011;30544;42.196;24.336;2023-05-29T01:04:14;9.15;;;4.05;;
26375;SDS011;30544;42.196;24.336;2023-05-29T01:06:43;10.65;;;4.28;;
26375;SDS011;30544;42.196;24.336;2023-05-29T01:09:10;9.00;;;4.45;;
26375;SDS011;30544;42.196;24.336;2023-05-29T01:11:40;12.10;;;4.78;;
26375;SDS011;30544;42.196;24.336;2023-05-29T01:14:08;7.97;;;4.43;;
26375;SDS011;30544;42.196;24.336;2023-05-29T01:16:37;14.13;;;4.65;;
26375;SDS011;30544;42.196;24.336;2023-05-29T01:19:08;8.32;;;4.60;;
26375;SDS011;30544;42.196;24.336;2023-05-29T01:21:40;12.23;;;4.53;;
26375;SDS011;30544;42.196;24.336;2023-05-29T01:24:14;13.93;;;4.50;;
26375;SDS011;30544;42.196;24.336;2023-05-29T01:26:50;8.07;;;4.72;;
26375;SDS011;30544;42.196;24.336;2023-05-29T01:29:18;7.00;;;4.15;;
26375;SDS011;30544;42.196;24.336;2023-05-29T01:31:45;13.32;;;5.40;;
26375;SDS011;30544;42.196;24.336;2023-05-29T01:34:12;17.23;;;4.75;;
26375;SDS011;30544;42.196;24.336;2023-05-29T01:36:38;9.70;;;4.70;;
26375;SDS011;30544;42.196;24.336;2023-05-29T01:39:05;11.00;;;5.32;;
26375;SDS011;30544;42.196;24.336;2023-05-29T01:41:32;11.68;;;4.97;;
26375;SDS011;30544;42.196;24.336;2023-05-29T01:44:02;11.70;;;4.95;;
26375;SDS011;30544;42.196;24.336;2023-05-29T01:46:30;9.48;;;4.78;;
26375;SDS011;30544;42.196;24.336;2023-05-29T01:48:56;9.65;;;4.35;;
26375;SDS011;30544;42.196;24.336;2023-05-29T01:51:22;12.95;;;4.85;;
26375;SDS011;30544;42.196;24.336;2023-05-29T01:53:49;6.43;;;4.40;;
26375;SDS011;30544;42.196;24.336;2023-05-29T01:56:16;13.68;;;4.75;;
26375;SDS011;30544;42.196;24.336;2023-05-29T01:58:42;19.92;;;5.20;;
26375;SDS011;30544;42.196;24.336;2023-05-29T02:01:10;13.90;;;5.47;;
26375;SDS011;30544;42.196;24.336;2023-05-29T02:03:37;11.75;;;5.10;;
26375;SDS011;30544;42.196;24.336;2023-05-29T02:06:03;11.85;;;5.10;;
26375;SDS011;30544;42.196;24.336;2023-05-29T02:08:31;9.77;;;4.72;;
26375;SDS011;30544;42.196;24.336;2023-05-29T02:10:58;13.10;;;5.07;;
26375;SDS011;30544;42.196;24.336;2023-05-29T02:13:24;12.02;;;5.63;;
26375;SDS011;30544;42.196;24.336;2023-05-29T02:15:51;21.20;;;5.55;;
26375;SDS011;30544;42.196;24.336;2023-05-29T02:18:19;8.05;;;5.13;;
26375;SDS011;30544;42.196;24.336;2023-05-29T02:20:45;7.88;;;5.07;;
26375;SDS011;30544;42.196;24.336;2023-05-29T02:23:12;7.72;;;5.22;;
26375;SDS011;30544;42.196;24.336;2023-05-29T02:25:38;10.35;;;5.00;;
26375;SDS011;30544;42.196;24.336;2023-05-29T02:28:05;9.88;;;4.95;;
26375;SDS011;30544;42.196;24.336;2023-05-29T02:30:32;11.15;;;5.28;;
26375;SDS011;30544;42.196;24.336;2023-05-29T02:32:58;14.10;;;5.40;;
26375;SDS011;30544;42.196;24.336;2023-05-29T02:35:26;14.70;;;5.10;;
26375;SDS011;30544;42.196;24.336;2023-05-29T02:37:53;8.52;;;4.80;;
26375;SDS011;30544;42.196;24.336;2023-05-29T02:40:19;7.88;;;5.30;;
26375;SDS011;30544;42.196;24.336;2023-05-29T02:42:46;15.98;;;5.15;;
26375;SDS011;30544;42.196;24.336;2023-05-29T02:45:13;9.98;;;5.00;;
26375;SDS011;30544;42.196;24.336;2023-05-29T02:47:39;13.15;;;5.88;;
26375;SDS011;30544;42.196;24.336;2023-05-29T02:50:06;11.52;;;5.60;;
26375;SDS011;30544;42.196;24.336;2023-05-29T02:52:34;10.35;;;5.20;;
26375;SDS011;30544;42.196;24.336;2023-05-29T02:55:01;8.32;;;5.00;;
26375;SDS011;30544;42.196;24.336;2023-05-29T02:57:29;11.82;;;5.38;;
26375;SDS011;30544;42.196;24.336;2023-05-29T02:59:55;12.30;;;5.50;;
26375;SDS011;30544;42.196;24.336;2023-05-29T03:02:22;9.43;;;5.40;;
26375;SDS011;30544;42.196;24.336;2023-05-29T03:04:48;10.50;;;4.75;;
26375;SDS011;30544;42.196;24.336;2023-05-29T03:07:16;10.63;;;4.97;;
26375;SDS011;30544;42.196;24.336;2023-05-29T03:09:43;8.40;;;5.50;;
26375;SDS011;30544;42.196;24.336;2023-05-29T03:12:10;16.60;;;6.05;;
26375;SDS011;30544;42.196;24.336;2023-05-29T03:14:37;18.75;;;6.05;;
26375;SDS011;30544;42.196;24.336;2023-05-29T03:17:03;7.88;;;5.38;;
26375;SDS011;30544;42.196;24.336;2023-05-29T03:19:30;10.77;;;5.43;;
26375;SDS011;30544;42.196;24.336;2023-05-29T03:21:57;22.05;;;5.25;;
26375;SDS011;30544;42.196;24.336;2023-05-29T03:24:23;12.32;;;5.47;;
26375;SDS011;30544;42.196;24.336;2023-05-29T03:26:51;10.05;;;5.45;;
26375;SDS011;30544;42.196;24.336;2023-05-29T03:29:17;9.38;;;5.40;;
26375;SDS011;30544;42.196;24.336;2023-05-29T03:31:44;16.25;;;5.72;;
26375;SDS011;30544;42.196;24.336;2023-05-29T03:34:10;16.73;;;5.50;;
26375;SDS011;30544;42.196;24.336;2023-05-29T03:36:37;18.00;;;5.88;;
26375;SDS011;30544;42.196;24.336;2023-05-29T03:39:03;15.57;;;5.80;;
26375;SDS011;30544;42.196;24.336;2023-05-29T03:41:30;11.98;;;5.50;;
26375;SDS011;30544;42.196;24.336;2023-05-29T03:43:58;12.40;;;5.50;;
26375;SDS011;30544;42.196;24.336;2023-05-29T03:46:24;12.93;;;5.18;;
26375;SDS011;30544;42.196;24.336;2023-05-29T03:48:52;10.98;;;5.57;;
26375;SDS011;30544;42.196;24.336;2023-05-29T03:51:18;15.82;;;6.05;;
26375;SDS011;30544;42.196;24.336;2023-05-29T03:53:45;12.45;;;5.85;;
26375;SDS011;30544;42.196;24.336;2023-05-29T03:56:11;12.23;;;5.57;;
26375;SDS011;30544;42.196;24.336;2023-05-29T03:58:38;10.25;;;5.63;;
26375;SDS011;30544;42.196;24.336;2023-05-29T04:01:06;13.68;;;5.57;;
26375;SDS011;30544;42.196;24.336;2023-05-29T04:03:33;16.58;;;6.10;;
26375;SDS011;30544;42.196;24.336;2023-05-29T04:06:00;12.98;;;5.65;;
26375;SDS011;30544;42.196;24.336;2023-05-29T04:08:26;15.75;;;6.10;;
26375;SDS011;30544;42.196;24.336;2023-05-29T04:10:53;9.18;;;5.90;;
26375;SDS011;30544;42.196;24.336;2023-05-29T04:13:19;10.00;;;5.53;;
26375;SDS011;30544;42.196;24.336;2023-05-29T04:15:46;13.77;;;6.18;;
26375;SDS011;30544;42.196;24.336;2023-05-29T04:18:13;13.32;;;5.70;;
26375;SDS011;30544;42.196;24.336;2023-05-29T04:20:40;7.72;;;4.90;;
26375;SDS011;30544;42.196;24.336;2023-05-29T04:23:07;26.23;;;10.63;;
26375;SDS011;30544;42.196;24.336;2023-05-29T04:25:33;11.32;;;6.63;;
26375;SDS011;30544;42.196;24.336;2023-05-29T04:28:01;15.00;;;6.28;;
26375;SDS011;30544;42.196;24.336;2023-05-29T04:30:28;10.63;;;5.97;;
26375;SDS011;30544;42.196;24.336;2023-05-29T04:32:55;12.63;;;5.95;;
26375;SDS011;30544;42.196;24.336;2023-05-29T04:35:24;11.52;;;6.07;;
26375;SDS011;30544;42.196;24.336;2023-05-29T04:37:53;20.00;;;7.40;;
26375;SDS011;30544;42.196;24.336;2023-05-29T04:40:21;13.65;;;7.57;;
26375;SDS011;30544;42.196;24.336;2023-05-29T04:42:48;13.60;;;6.72;;
26375;SDS011;30544;42.196;24.336;2023-05-29T04:45:15;15.70;;;7.57;;
26375;SDS011;30544;42.196;24.336;2023-05-29T04:47:45;16.95;;;7.03;;
26375;SDS011;30544;42.196;24.336;2023-05-29T04:50:11;19.23;;;6.82;;
26375;SDS011;30544;42.196;24.336;2023-05-29T04:52:39;15.02;;;6.22;;
26375;SDS011;30544;42.196;24.336;2023-05-29T04:55:07;11.63;;;6.20;;
26375;SDS011;30544;42.196;24.336;2023-05-29T04:57:33;10.13;;;5.90;;
26375;SDS011;30544;42.196;24.336;2023-05-29T05:00:00;12.18;;;5.47;;
26375;SDS011;30544;42.196;24.336;2023-05-29T05:02:28;12.75;;;6.57;;
26375;SDS011;30544;42.196;24.336;2023-05-29T05:04:55;10.55;;;6.57;;
26375;SDS011;30544;42.196;24.336;2023-05-29T05:07:21;9.23;;;5.97;;
26375;SDS011;30544;42.196;24.336;2023-05-29T05:09:49;10.00;;;6.00;;
26375;SDS011;30544;42.196;24.336;2023-05-29T05:12:16;12.45;;;5.80;;
26375;SDS011;30544;42.196;24.336;2023-05-29T05:14:42;17.15;;;6.43;;
26375;SDS011;30544;42.196;24.336;2023-05-29T05:17:09;12.05;;;6.97;;
26375;SDS011;30544;42.196;24.336;2023-05-29T05:19:35;14.25;;;6.30;;
26375;SDS011;30544;42.196;24.336;2023-05-29T05:22:02;15.13;;;7.13;;
26375;SDS011;30544;42.196;24.336;2023-05-29T05:24:28;10.00;;;7.43;;
26375;SDS011;30544;42.196;24.336;2023-05-29T05:26:58;18.35;;;7.80;;
26375;SDS011;30544;42.196;24.336;2023-05-29T05:29:24;23.98;;;7.35;;
26375;SDS011;30544;42.196;24.336;2023-05-29T05:31:51;14.68;;;7.15;;
26375;SDS011;30544;42.196;24.336;2023-05-29T05:34:17;19.35;;;7.07;;
26375;SDS011;30544;42.196;24.336;2023-05-29T05:36:44;16.15;;;7.07;;
26375;SDS011;30544;42.196;24.336;2023-05-29T05:39:10;12.77;;;7.82;;
26375;SDS011;30544;42.196;24.336;2023-05-29T05:41:37;15.57;;;7.43;;
26375;SDS011;30544;42.196;24.336;2023-05-29T05:44:05;14.02;;;7.60;;
26375;SDS011;30544;42.196;24.336;2023-05-29T05:46:32;16.95;;;8.82;;
26375;SDS011;30544;42.196;24.336;2023-05-29T05:48:58;13.32;;;7.28;;
26375;SDS011;30544;42.196;24.336;2023-05-29T05:51:25;12.02;;;6.85;;
26375;SDS011;30544;42.196;24.336;2023-05-29T05:53:52;10.48;;;6.85;;
26375;SDS011;30544;42.196;24.336;2023-05-29T05:56:18;10.98;;;6.38;;
26375;SDS011;30544;42.196;24.336;2023-05-29T05:58:45;12.10;;;6.30;;
26375;SDS011;30544;42.196;24.336;2023-05-29T06:01:13;10.73;;;6.63;;
26375;SDS011;30544;42.196;24.336;2023-05-29T06:03:40;14.63;;;8.23;;
26375;SDS011;30544;42.196;24.336;2023-05-29T06:06:06;14.40;;;7.55;;
26375;SDS011;30544;42.196;24.336;2023-05-29T06:08:33;14.55;;;7.05;;
26375;SDS011;30544;42.196;24.336;2023-05-29T06:11:00;11.57;;;7.22;;
26375;SDS011;30544;42.196;24.336;2023-05-29T06:13:26;15.82;;;6.70;;
26375;SDS011;30544;42.196;24.336;2023-05-29T06:15:53;16.85;;;6.88;;
26375;SDS011;30544;42.196;24.336;2023-05-29T06:18:21;16.48;;;7.15;;
26375;SDS011;30544;42.196;24.336;2023-05-29T06:20:47;14.98;;;7.70;;
26375;SDS011;30544;42.196;24.336;2023-05-29T06:23:13;13.98;;;7.03;;
26375;SDS011;30544;42.196;24.336;2023-05-29T06:25:40;12.27;;;7.20;;
26375;SDS011;30544;42.196;24.336;2023-05-29T06:28:06;14.43;;;6.55;;
26375;SDS011;30544;42.196;24.336;2023-05-29T06:30:33;12.80;;;7.45;;
26375;SDS011;30544;42.196;24.336;2023-05-29T06:33:00;14.82;;;6.43;;
26375;SDS011;30544;42.196;24.336;2023-05-29T06:35:28;17.75;;;7.90;;
26375;SDS011;30544;42.196;24.336;2023-05-29T06:37:54;13.00;;;6.53;;
26375;SDS011;30544;42.196;24.336;2023-05-29T06:40:21;15.73;;;7.13;;
26375;SDS011;30544;42.196;24.336;2023-05-29T06:42:47;11.90;;;7.22;;
26375;SDS011;30544;42.196;24.336;2023-05-29T06:45:14;13.52;;;6.85;;
26375;SDS011;30544;42.196;24.336;2023-05-29T06:47:41;9.43;;;5.63;;
26375;SDS011;30544;42.196;24.336;2023-05-29T06:50:08;12.07;;;6.70;;
26375;SDS011;30544;42.196;24.336;2023-05-29T06:52:36;16.05;;;6.32;;
26375;SDS011;30544;42.196;24.336;2023-05-29T06:55:03;14.48;;;7.03;;
26375;SDS011;30544;42.196;24.336;2023-05-29T06:57:29;14.02;;;6.45;;
26375;SDS011;30544;42.196;24.336;2023-05-29T06:59:56;14.10;;;5.78;;
26375;SDS011;30544;42.196;24.336;2023-05-29T07:02:22;15.73;;;5.70;;
26375;SDS011;30544;42.196;24.336;2023-05-29T07:04:49;10.07;;;5.78;;
26375;SDS011;30544;42.196;24.336;2023-05-29T07:07:15;11.55;;;5.15;;
26375;SDS011;30544;42.196;24.336;2023-05-29T07:09:43;13.45;;;4.93;;
26375;SDS011;30544;42.196;24.336;2023-05-29T07:12:10;9.30;;;5.60;;
26375;SDS011;30544;42.196;24.336;2023-05-29T07:14:36;13.57;;;6.28;;
26375;SDS011;30544;42.196;24.336;2023-05-29T07:17:03;10.18;;;5.70;;
26375;SDS011;30544;42.196;24.336;2023-05-29T07:19:29;13.18;;;5.70;;
26375;SDS011;30544;42.196;24.336;2023-05-29T07:21:57;18.40;;;6.20;;
26375;SDS011;30544;42.196;24.336;2023-05-29T07:24:24;11.10;;;4.93;;
26375;SDS011;30544;42.196;24.336;2023-05-29T07:26:51;9.07;;;4.75;;
26375;SDS011;30544;42.196;24.336;2023-05-29T07:29:19;22.30;;;6.95;;
26375;SDS011;30544;42.196;24.336;2023-05-29T07:31:48;10.23;;;5.45;;
26375;SDS011;30544;42.196;24.336;2023-05-29T07:34:14;8.95;;;5.55;;
26375;SDS011;30544;42.196;24.336;2023-05-29T07:36:55;17.20;;;6.18;;
26375;SDS011;30544;42.196;24.336;2023-05-29T07:39:22;19.85;;;5.60;;
26375;SDS011;30544;42.196;24.336;2023-05-29T07:41:49;38.47;;;13.20;;
26375;SDS011;30544;42.196;24.336;2023-05-29T07:44:17;7.13;;;4.28;;
26375;SDS011;30544;42.196;24.336;2023-05-29T07:46:43;8.70;;;4.43;;
26375;SDS011;30544;42.196;24.336;2023-05-29T07:49:10;8.70;;;3.97;;
26375;SDS011;30544;42.196;24.336;2023-05-29T07:51:36;8.55;;;3.90;;
26375;SDS011;30544;42.196;24.336;2023-05-29T07:54:03;8.50;;;3.63;;
26375;SDS011;30544;42.196;24.336;2023-05-29T07:56:30;9.05;;;3.58;;
26375;SDS011;30544;42.196;24.336;2023-05-29T07:58:59;8.57;;;4.05;;
26375;SDS011;30544;42.196;24.336;2023-05-29T08:01:27;7.22;;;3.60;;
26375;SDS011;30544;42.196;24.336;2023-05-29T08:03:53;6.35;;;3.10;;
26375;SDS011;30544;42.196;24.336;2023-05-29T08:06:20;4.32;;;3.03;;
26375;SDS011;30544;42.196;24.336;2023-05-29T08:08:46;8.40;;;3.72;;
26375;SDS011;30544;42.196;24.336;2023-05-29T08:11:13;6.88;;;3.35;;
26375;SDS011;30544;42.196;24.336;2023-05-29T08:13:39;10.98;;;3.40;;
26375;SDS011;30544;42.196;24.336;2023-05-29T08:16:06;11.10;;;3.80;;
26375;SDS011;30544;42.196;24.336;2023-05-29T08:18:34;6.63;;;3.42;;
26375;SDS011;30544;42.196;24.336;2023-05-29T08:21:01;8.05;;;3.17;;
26375;SDS011;30544;42.196;24.336;2023-05-29T08:23:28;9.20;;;3.38;;
26375;SDS011;30544;42.196;24.336;2023-05-29T08:25:54;6.55;;;3.63;;
26375;SDS011;30544;42.196;24.336;2023-05-29T08:28:21;4.30;;;2.95;;
26375;SDS011;30544;42.196;24.336;2023-05-29T08:30:47;6.90;;;3.38;;
26375;SDS011;30544;42.196;24.336;2023-05-29T08:33:14;7.07;;;3.13;;
26375;SDS011;30544;42.196;24.336;2023-05-29T08:35:41;7.03;;;3.10;;
26375;SDS011;30544;42.196;24.336;2023-05-29T08:38:08;7.88;;;4.25;;
26375;SDS011;30544;42.196;24.336;2023-05-29T08:40:35;7.13;;;3.40;;
26375;SDS011;30544;42.196;24.336;2023-05-29T08:43:02;9.13;;;4.07;;
26375;SDS011;30544;42.196;24.336;2023-05-29T08:45:30;8.65;;;3.20;;
26375;SDS011;30544;42.196;24.336;2023-05-29T08:48:00;11.00;;;3.70;;
26375;SDS011;30544;42.196;24.336;2023-05-29T08:50:26;10.68;;;5.35;;
26375;SDS011;30544;42.196;24.336;2023-05-29T08:52:54;7.97;;;3.92;;
26375;SDS011;30544;42.196;24.336;2023-05-29T08:55:22;9.95;;;3.25;;
26375;SDS011;30544;42.196;24.336;2023-05-29T08:57:49;10.63;;;3.90;;
26375;SDS011;30544;42.196;24.336;2023-05-29T09:00:15;9.45;;;4.28;;
26375;SDS011;30544;42.196;24.336;2023-05-29T09:02:43;12.45;;;5.95;;
26375;SDS011;30544;42.196;24.336;2023-05-29T09:05:10;13.48;;;4.05;;
26375;SDS011;30544;42.196;24.336;2023-05-29T09:07:37;8.13;;;3.42;;
26375;SDS011;30544;42.196;24.336;2023-05-29T09:10:06;8.13;;;3.80;;
26375;SDS011;30544;42.196;24.336;2023-05-29T09:12:33;6.15;;;3.50;;
26375;SDS011;30544;42.196;24.336;2023-05-29T09:15:00;8.48;;;3.95;;
26375;SDS011;30544;42.196;24.336;2023-05-29T09:17:30;7.13;;;2.78;;
26375;SDS011;30544;42.196;24.336;2023-05-29T09:19:57;13.50;;;5.30;;
26375;SDS011;30544;42.196;24.336;2023-05-29T09:22:23;7.18;;;3.58;;
26375;SDS011;30544;42.196;24.336;2023-05-29T09:24:49;14.15;;;4.18;;
26375;SDS011;30544;42.196;24.336;2023-05-29T09:27:18;5.78;;;3.20;;
26375;SDS011;30544;42.196;24.336;2023-05-29T09:29:45;8.32;;;4.20;;
26375;SDS011;30544;42.196;24.336;2023-05-29T09:32:14;16.25;;;4.78;;
26375;SDS011;30544;42.196;24.336;2023-05-29T09:34:41;8.30;;;3.67;;
26375;SDS011;30544;42.196;24.336;2023-05-29T09:37:08;13.30;;;6.15;;
26375;SDS011;30544;42.196;24.336;2023-05-29T09:39:43;15.05;;;4.03;;
26375;SDS011;30544;42.196;24.336;2023-05-29T09:42:10;10.90;;;4.10;;
26375;SDS011;30544;42.196;24.336;2023-05-29T09:44:38;6.38;;;4.20;;
26375;SDS011;30544;42.196;24.336;2023-05-29T09:47:05;8.93;;;5.25;;
26375;SDS011;30544;42.196;24.336;2023-05-29T09:49:32;12.23;;;5.75;;
26375;SDS011;30544;42.196;24.336;2023-05-29T09:51:59;10.32;;;4.07;;
26375;SDS011;30544;42.196;24.336;2023-05-29T09:54:26;8.20;;;3.08;;
26375;SDS011;30544;42.196;24.336;2023-05-29T09:56:54;4.55;;;3.33;;
26375;SDS011;30544;42.196;24.336;2023-05-29T09:59:21;5.15;;;3.10;;
26375;SDS011;30544;42.196;24.336;2023-05-29T10:01:54;7.45;;;3.30;;
26375;SDS011;30544;42.196;24.336;2023-05-29T10:04:26;8.23;;;2.92;;
26375;SDS011;30544;42.196;24.336;2023-05-29T10:06:52;14.55;;;7.10;;
26375;SDS011;30544;42.196;24.336;2023-05-29T10:09:22;10.65;;;3.45;;
26375;SDS011;30544;42.196;24.336;2023-05-29T10:11:50;3.95;;;2.80;;
26375;SDS011;30544;42.196;24.336;2023-05-29T10:14:18;6.45;;;3.55;;
26375;SDS011;30544;42.196;24.336;2023-05-29T10:16:46;8.90;;;3.60;;
26375;SDS011;30544;42.196;24.336;2023-05-29T10:19:15;6.90;;;3.50;;
26375;SDS011;30544;42.196;24.336;2023-05-29T10:21:44;10.38;;;3.40;;
26375;SDS011;30544;42.196;24.336;2023-05-29T10:24:10;10.38;;;4.60;;
26375;SDS011;30544;42.196;24.336;2023-05-29T10:26:38;8.80;;;3.92;;
26375;SDS011;30544;42.196;24.336;2023-05-29T10:29:12;8.95;;;3.85;;
26375;SDS011;30544;42.196;24.336;2023-05-29T10:31:43;9.02;;;2.72;;
26375;SDS011;30544;42.196;24.336;2023-05-29T10:34:18;7.95;;;3.22;;
26375;SDS011;30544;42.196;24.336;2023-05-29T10:36:49;5.40;;;2.70;;
26375;SDS011;30544;42.196;24.336;2023-05-29T10:39:20;9.65;;;3.40;;
26375;SDS011;30544;42.196;24.336;2023-05-29T10:41:46;5.38;;;3.10;;
26375;SDS011;30544;42.196;24.336;2023-05-29T10:47:02;8.15;;;3.20;;
26375;SDS011;30544;42.196;24.336;2023-05-29T10:49:30;5.25;;;3.38;;
26375;SDS011;30544;42.196;24.336;2023-05-29T10:51:57;5.85;;;3.17;;
26375;SDS011;30544;42.196;24.336;2023-05-29T10:54:24;8.82;;;3.58;;
26375;SDS011;30544;42.196;24.336;2023-05-29T10:56:51;5.72;;;3.10;;
26375;SDS011;30544;42.196;24.336;2023-05-29T10:59:18;6.38;;;2.70;;
26375;SDS011;30544;42.196;24.336;2023-05-29T11:01:45;4.00;;;3.00;;
26375;SDS011;30544;42.196;24.336;2023-05-29T11:04:27;12.60;;;3.13;;
26375;SDS011;30544;42.196;24.336;2023-05-29T11:06:57;7.20;;;3.30;;
26375;SDS011;30544;42.196;24.336;2023-05-29T11:09:27;5.18;;;3.00;;
26375;SDS011;30544;42.196;24.336;2023-05-29T11:12:13;11.75;;;3.10;;
26375;SDS011;30544;42.196;24.336;2023-05-29T11:14:46;7.70;;;3.13;;
26375;SDS011;30544;42.196;24.336;2023-05-29T11:17:28;5.10;;;2.90;;
26375;SDS011;30544;42.196;24.336;2023-05-29T11:19:55;6.63;;;3.20;;
26375;SDS011;30544;42.196;24.336;2023-05-29T11:22:25;9.00;;;3.22;;
26375;SDS011;30544;42.196;24.336;2023-05-29T11:24:53;19.20;;;9.52;;
26375;SDS011;30544;42.196;24.336;2023-05-29T11:27:22;10.35;;;5.45;;
26375;SDS011;30544;42.196;24.336;2023-05-29T11:29:49;4.85;;;2.85;;
26375;SDS011;30544;42.196;24.336;2023-05-29T11:32:18;6.18;;;2.83;;
26375;SDS011;30544;42.196;24.336;2023-05-29T11:34:46;5.05;;;2.95;;
26375;SDS011;30544;42.196;24.336;2023-05-29T11:37:14;7.65;;;3.20;;
26375;SDS011;30544;42.196;24.336;2023-05-29T11:39:42;4.82;;;2.60;;
26375;SDS011;30544;42.196;24.336;2023-05-29T11:42:08;4.65;;;3.00;;
26375;SDS011;30544;42.196;24.336;2023-05-29T11:44:35;4.72;;;3.03;;
26375;SDS011;30544;42.196;24.336;2023-05-29T11:47:02;8.40;;;3.08;;
26375;SDS011;30544;42.196;24.336;2023-05-29T11:49:29;6.85;;;3.22;;
26375;SDS011;30544;42.196;24.336;2023-05-29T11:52:04;8.15;;;3.35;;
26375;SDS011;30544;42.196;24.336;2023-05-29T11:54:32;4.38;;;3.22;;
26375;SDS011;30544;42.196;24.336;2023-05-29T11:57:00;4.32;;;2.60;;
26375;SDS011;30544;42.196;24.336;2023-05-29T11:59:28;9.20;;;3.08;;
26375;SDS011;30544;42.196;24.336;2023-05-29T12:01:54;11.77;;;3.38;;
26375;SDS011;30544;42.196;24.336;2023-05-29T12:04:21;4.43;;;2.60;;
26375;SDS011;30544;42.196;24.336;2023-05-29T12:06:47;5.70;;;2.92;;
26375;SDS011;30544;42.196;24.336;2023-05-29T12:09:23;11.15;;;2.78;;
26375;SDS011;30544;42.196;24.336;2023-05-29T12:11:50;6.28;;;2.50;;
26375;SDS011;30544;42.196;24.336;2023-05-29T12:14:17;5.35;;;2.97;;
26375;SDS011;30544;42.196;24.336;2023-05-29T12:16:44;4.25;;;2.25;;
26375;SDS011;30544;42.196;24.336;2023-05-29T12:19:11;3.42;;;2.22;;
26375;SDS011;30544;42.196;24.336;2023-05-29T12:21:40;4.70;;;2.97;;
26375;SDS011;30544;42.196;24.336;2023-05-29T12:24:07;3.17;;;2.45;;
26375;SDS011;30544;42.196;24.336;2023-05-29T12:26:33;5.90;;;2.83;;
26375;SDS011;30544;42.196;24.336;2023-05-29T12:29:02;7.95;;;2.60;;
26375;SDS011;30544;42.196;24.336;2023-05-29T12:31:30;7.72;;;3.08;;
26375;SDS011;30544;42.196;24.336;2023-05-29T12:34:00;3.17;;;2.78;;
26375;SDS011;30544;42.196;24.336;2023-05-29T12:36:27;5.10;;;2.95;;
26375;SDS011;30544;42.196;24.336;2023-05-29T12:38:53;6.15;;;3.10;;
26375;SDS011;30544;42.196;24.336;2023-05-29T12:41:25;6.60;;;3.00;;
26375;SDS011;30544;42.196;24.336;2023-05-29T12:43:52;5.47;;;2.92;;
26375;SDS011;30544;42.196;24.336;2023-05-29T12:46:19;4.45;;;2.95;;
26375;SDS011;30544;42.196;24.336;2023-05-29T12:48:47;8.82;;;3.10;;
26375;SDS011;30544;42.196;24.336;2023-05-29T12:51:14;7.90;;;3.30;;
26375;SDS011;30544;42.196;24.336;2023-05-29T12:53:41;8.70;;;3.63;;
26375;SDS011;30544;42.196;24.336;2023-05-29T12:56:07;8.90;;;3.63;;
26375;SDS011;30544;42.196;24.336;2023-05-29T12:58:34;11.88;;;3.38;;
26375;SDS011;30544;42.196;24.336;2023-05-29T13:01:00;6.53;;;3.53;;
26375;SDS011;30544;42.196;24.336;2023-05-29T13:03:27;8.25;;;3.20;;
26375;SDS011;30544;42.196;24.336;2023-05-29T13:05:54;5.43;;;3.05;;
26375;SDS011;30544;42.196;24.336;2023-05-29T13:08:21;4.25;;;2.40;;
26375;SDS011;30544;42.196;24.336;2023-05-29T13:10:47;7.80;;;3.85;;
26375;SDS011;30544;42.196;24.336;2023-05-29T13:13:14;6.13;;;2.58;;
26375;SDS011;30544;42.196;24.336;2023-05-29T13:15:41;5.13;;;2.78;;
26375;SDS011;30544;42.196;24.336;2023-05-29T13:18:07;6.25;;;2.55;;
26375;SDS011;30544;42.196;24.336;2023-05-29T13:20:33;5.93;;;2.60;;
26375;SDS011;30544;42.196;24.336;2023-05-29T13:23:01;8.00;;;3.00;;
26375;SDS011;30544;42.196;24.336;2023-05-29T13:25:28;5.00;;;2.60;;
26375;SDS011;30544;42.196;24.336;2023-05-29T13:27:54;8.13;;;3.00;;
26375;SDS011;30544;42.196;24.336;2023-05-29T13:30:21;5.90;;;2.63;;
26375;SDS011;30544;42.196;24.336;2023-05-29T13:32:48;9.90;;;2.80;;
26375;SDS011;30544;42.196;24.336;2023-05-29T13:35:14;4.25;;;2.78;;
26375;SDS011;30544;42.196;24.336;2023-05-29T13:37:41;6.38;;;2.83;;
26375;SDS011;30544;42.196;24.336;2023-05-29T13:40:10;4.97;;;2.90;;
26375;SDS011;30544;42.196;24.336;2023-05-29T13:42:37;3.25;;;2.30;;
26375;SDS011;30544;42.196;24.336;2023-05-29T13:45:05;5.43;;;2.90;;
26375;SDS011;30544;42.196;24.336;2023-05-29T13:47:32;4.85;;;2.53;;
26375;SDS011;30544;42.196;24.336;2023-05-29T13:49:59;3.55;;;2.28;;
26375;SDS011;30544;42.196;24.336;2023-05-29T13:52:25;5.85;;;2.10;;
26375;SDS011;30544;42.196;24.336;2023-05-29T13:54:52;6.15;;;2.83;;
26375;SDS011;30544;42.196;24.336;2023-05-29T13:57:20;4.63;;;2.55;;
26375;SDS011;30544;42.196;24.336;2023-05-29T13:59:46;6.85;;;3.10;;
26375;SDS011;30544;42.196;24.336;2023-05-29T14:02:13;4.88;;;2.40;;
26375;SDS011;30544;42.196;24.336;2023-05-29T14:04:39;7.07;;;2.88;;
26375;SDS011;30544;42.196;24.336;2023-05-29T14:07:07;9.05;;;2.97;;
26375;SDS011;30544;42.196;24.336;2023-05-29T14:09:34;6.65;;;2.60;;
26375;SDS011;30544;42.196;24.336;2023-05-29T14:12:00;5.43;;;2.60;;
26375;SDS011;30544;42.196;24.336;2023-05-29T14:14:29;4.80;;;2.25;;
26375;SDS011;30544;42.196;24.336;2023-05-29T14:16:55;7.32;;;2.78;;
26375;SDS011;30544;42.196;24.336;2023-05-29T14:19:22;5.07;;;2.83;;
26375;SDS011;30544;42.196;24.336;2023-05-29T14:21:48;4.30;;;3.05;;
26375;SDS011;30544;42.196;24.336;2023-05-29T14:24:15;7.18;;;3.13;;
26375;SDS011;30544;42.196;24.336;2023-05-29T14:26:42;14.70;;;8.18;;
26375;SDS011;30544;42.196;24.336;2023-05-29T14:29:11;9.48;;;4.45;;
26375;SDS011;30544;42.196;24.336;2023-05-29T14:31:40;9.52;;;4.43;;